sensor_id;sensor_type;location;lat;lon;timestamp;pressure;altitude;pressure_sealevel;temperature;humidity
62849;BME280;48941;49.516;8.286;2023-01-26T00:01:08;101158.13;;;0.60;98.35
62849;BME280;48941;49.516;8.286;2023-01-26T00:03:36;101145.97;;;0.56;98.05
62849;BME280;48941;49.516;8.286;2023-01-26T00:06:04;101148.84;;;0.47;98.06
62849;BME280;48941;49.516;8.286;2023-01-26T00:08:34;101142.78;;;0.45;98.44
62849;BME280;48941;49.516;8.286;2023-01-26T00:11:04;101143.81;;;0.39;98.53
62849;BME280;48941;49.516;8.286;2023-01-26T00:13:34;101137.50;;;0.46;98.31
62849;BME280;48941;49.516;8.286;2023-01-26T00:16:04;101135.94;;;0.39;98.60
62849;BME280;48941;49.516;8.286;2023-01-26T00:18:36;101139.53;;;0.35;98.60
62849;BME280;48941;49.516;8.286;2023-01-26T00:21:05;101136.97;;;0.33;98.72
62849;BME280;48941;49.516;8.286;2023-01-26T00:23:35;101129.06;;;0.35;98.84
62849;BME280;48941;49.516;8.286;2023-01-26T00:26:05;101128.16;;;0.36;98.76
62849;BME280;48941;49.516;8.286;2023-01-26T00:28:34;101118.50;;;0.38;98.26
62849;BME280;48941;49.516;8.286;2023-01-26T00:31:03;101120.34;;;0.34;98.02
62849;BME280;48941;49.516;8.286;2023-01-26T00:33:31;101123.00;;;0.33;97.98
62849;BME280;48941;49.516;8.286;2023-01-26T00:35:59;101115.19;;;0.31;98.01
62849;BME280;48941;49.516;8.286;2023-01-26T00:38:27;101108.16;;;0.32;98.03
62849;BME280;48941;49.516;8.286;2023-01-26T00:40:55;101110.03;;;0.28;97.76
62849;BME280;48941;49.516;8.286;2023-01-26T00:43:22;101110.84;;;0.30;97.81
62849;BME280;48941;49.516;8.286;2023-01-26T00:45:51;101106.38;;;0.34;97.61
62849;BME280;48941;49.516;8.286;2023-01-26T00:48:19;101105.59;;;0.30;97.56
62849;BME280;48941;49.516;8.286;2023-01-26T00:50:50;101108.25;;;0.29;97.72
62849;BME280;48941;49.516;8.286;2023-01-26T00:53:18;101103.00;;;0.30;97.75
62849;BME280;48941;49.516;8.286;2023-01-26T00:55:46;101097.63;;;0.35;97.56
62849;BME280;48941;49.516;8.286;2023-01-26T00:58:13;101096.84;;;0.31;97.61
62849;BME280;48941;49.516;8.286;2023-01-26T01:00:42;101102.03;;;0.33;97.49
62849;BME280;48941;49.516;8.286;2023-01-26T01:03:11;101104.63;;;0.34;97.61
62849;BME280;48941;49.516;8.286;2023-01-26T01:05:39;101098.59;;;0.31;97.72
62849;BME280;48941;49.516;8.286;2023-01-26T01:08:06;101103.72;;;0.35;97.67
62849;BME280;48941;49.516;8.286;2023-01-26T01:10:34;101099.25;;;0.39;97.42
62849;BME280;48941;49.516;8.286;2023-01-26T01:13:02;101096.75;;;0.34;97.06
62849;BME280;48941;49.516;8.286;2023-01-26T01:15:30;101090.59;;;0.35;96.94
62849;BME280;48941;49.516;8.286;2023-01-26T01:17:57;101097.66;;;0.33;96.73
62849;BME280;48941;49.516;8.286;2023-01-26T01:20:26;101103.75;;;0.34;96.75
62849;BME280;48941;49.516;8.286;2023-01-26T01:22:55;101102.03;;;0.33;96.73
62849;BME280;48941;49.516;8.286;2023-01-26T01:25:23;101091.56;;;0.33;96.99
62849;BME280;48941;49.516;8.286;2023-01-26T01:27:50;101095.94;;;0.32;96.73
62849;BME280;48941;49.516;8.286;2023-01-26T01:30:18;101097.63;;;0.35;96.92
62849;BME280;48941;49.516;8.286;2023-01-26T01:32:46;101095.13;;;0.30;96.91
62849;BME280;48941;49.516;8.286;2023-01-26T01:35:16;101096.84;;;0.31;97.21
62849;BME280;48941;49.516;8.286;2023-01-26T01:37:46;101097.78;;;0.29;97.11
62849;BME280;48941;49.516;8.286;2023-01-26T01:40:14;101091.72;;;0.27;97.09
62849;BME280;48941;49.516;8.286;2023-01-26T01:42:46;101093.44;;;0.28;97.39
62849;BME280;48941;49.516;8.286;2023-01-26T01:45:41;101095.97;;;0.31;97.29
62849;BME280;48941;49.516;8.286;2023-01-26T01:48:16;101092.53;;;0.29;97.18
62849;BME280;48941;49.516;8.286;2023-01-26T01:50:45;101090.81;;;0.28;97.31
62849;BME280;48941;49.516;8.286;2023-01-26T01:53:20;101095.16;;;0.29;97.23
62849;BME280;48941;49.516;8.286;2023-01-26T01:55:53;101090.81;;;0.28;97.06
62849;BME280;48941;49.516;8.286;2023-01-26T01:58:22;101082.19;;;0.24;97.43
62849;BME280;48941;49.516;8.286;2023-01-26T02:00:50;101089.91;;;0.29;97.51
62849;BME280;48941;49.516;8.286;2023-01-26T02:03:18;101092.59;;;0.26;97.56
62849;BME280;48941;49.516;8.286;2023-01-26T02:05:52;101089.97;;;0.26;97.52
62849;BME280;48941;49.516;8.286;2023-01-26T02:08:24;101088.28;;;0.25;97.74
62849;BME280;48941;49.516;8.286;2023-01-26T02:10:55;101088.28;;;0.25;97.68
62849;BME280;48941;49.516;8.286;2023-01-26T02:13:25;101084.84;;;0.23;97.52
62849;BME280;48941;49.516;8.286;2023-01-26T02:15:53;101088.31;;;0.23;97.71
62849;BME280;48941;49.516;8.286;2023-01-26T02:18:21;101088.41;;;0.20;97.99
62849;BME280;48941;49.516;8.286;2023-01-26T02:20:51;101084.84;;;0.23;98.08
62849;BME280;48941;49.516;8.286;2023-01-26T02:23:28;101084.66;;;0.30;97.86
62849;BME280;48941;49.516;8.286;2023-01-26T02:26:03;101081.44;;;0.19;98.10
62849;BME280;48941;49.516;8.286;2023-01-26T02:28:31;101074.56;;;0.15;98.46
62849;BME280;48941;49.516;8.286;2023-01-26T02:30:59;101079.78;;;0.15;98.64
62849;BME280;48941;49.516;8.286;2023-01-26T02:33:30;101077.16;;;0.16;98.63
62849;BME280;48941;49.516;8.286;2023-01-26T02:35:58;101070.06;;;0.20;98.40
62849;BME280;48941;49.516;8.286;2023-01-26T02:38:32;101073.63;;;0.16;98.74
62849;BME280;48941;49.516;8.286;2023-01-26T02:41:07;101074.44;;;0.19;98.62
62849;BME280;48941;49.516;8.286;2023-01-26T02:43:36;101074.47;;;0.18;98.88
62849;BME280;48941;49.516;8.286;2023-01-26T02:46:03;101073.72;;;0.14;99.38
62849;BME280;48941;49.516;8.286;2023-01-26T02:48:32;101068.47;;;0.14;99.33
62849;BME280;48941;49.516;8.286;2023-01-26T02:51:17;101071.09;;;0.14;99.24
62849;BME280;48941;49.516;8.286;2023-01-26T02:53:44;101073.75;;;0.13;99.13
62849;BME280;48941;49.516;8.286;2023-01-26T02:56:13;101067.59;;;0.14;98.85
62849;BME280;48941;49.516;8.286;2023-01-26T02:58:40;101058.09;;;0.10;98.40
62849;BME280;48941;49.516;8.286;2023-01-26T03:01:08;101058.03;;;0.13;98.57
62849;BME280;48941;49.516;8.286;2023-01-26T03:03:36;101065.03;;;0.12;98.39
62849;BME280;48941;49.516;8.286;2023-01-26T03:06:11;101056.25;;;0.13;98.06
62849;BME280;48941;49.516;8.286;2023-01-26T03:08:40;101056.19;;;0.16;98.12
62849;BME280;48941;49.516;8.286;2023-01-26T03:11:08;101059.69;;;0.15;98.01
62849;BME280;48941;49.516;8.286;2023-01-26T03:13:38;101055.38;;;0.14;97.90
62849;BME280;48941;49.516;8.286;2023-01-26T03:16:07;101059.69;;;0.15;98.20
62849;BME280;48941;49.516;8.286;2023-01-26T03:18:35;101056.19;;;0.16;98.25
62849;BME280;48941;49.516;8.286;2023-01-26T03:21:21;101051.75;;;0.18;98.59
62849;BME280;48941;49.516;8.286;2023-01-26T03:24:10;101050.81;;;0.21;98.61
62849;BME280;48941;49.516;8.286;2023-01-26T03:26:56;101040.31;;;0.23;98.56
62849;BME280;48941;49.516;8.286;2023-01-26T03:29:43;101038.63;;;0.20;98.44
62849;BME280;48941;49.516;8.286;2023-01-26T03:32:12;101039.47;;;0.21;98.90
62849;BME280;48941;49.516;8.286;2023-01-26T03:34:39;101031.63;;;0.21;99.23
62849;BME280;48941;49.516;8.286;2023-01-26T03:37:07;101034.25;;;0.21;98.94
62849;BME280;48941;49.516;8.286;2023-01-26T03:39:35;101034.25;;;0.21;99.83
62849;BME280;48941;49.516;8.286;2023-01-26T03:42:20;101029.81;;;0.23;100.00
62849;BME280;48941;49.516;8.286;2023-01-26T03:45:08;101019.34;;;0.23;100.00
62849;BME280;48941;49.516;8.286;2023-01-26T03:48:02;101012.38;;;0.22;100.00
62849;BME280;48941;49.516;8.286;2023-01-26T03:50:47;101017.66;;;0.20;100.00
62849;BME280;48941;49.516;8.286;2023-01-26T03:53:33;101017.59;;;0.22;99.78
62849;BME280;48941;49.516;8.286;2023-01-26T03:56:18;101002.88;;;0.17;99.87
62849;BME280;48941;49.516;8.286;2023-01-26T03:58:49;101015.88;;;0.22;100.00
62849;BME280;48941;49.516;8.286;2023-01-26T04:01:20;101010.69;;;0.19;100.00
62849;BME280;48941;49.516;8.286;2023-01-26T04:03:53;101012.38;;;0.22;100.00
62849;BME280;48941;49.516;8.286;2023-01-26T04:06:40;101011.53;;;0.19;100.00
62849;BME280;48941;49.516;8.286;2023-01-26T04:09:25;101008.16;;;0.16;99.98
62849;BME280;48941;49.516;8.286;2023-01-26T04:11:53;101015.28;;;0.11;99.98
62849;BME280;48941;49.516;8.286;2023-01-26T04:14:21;101008.41;;;0.07;99.64
62849;BME280;48941;49.516;8.286;2023-01-26T04:17:17;101009.22;;;0.09;99.77
62849;BME280;48941;49.516;8.286;2023-01-26T04:20:03;101003.16;;;0.08;100.00
62849;BME280;48941;49.516;8.286;2023-01-26T04:22:49;101003.88;;;0.12;100.00
62849;BME280;48941;49.516;8.286;2023-01-26T04:25:19;101005.53;;;0.16;100.00
62849;BME280;48941;49.516;8.286;2023-01-26T04:27:47;101001.03;;;0.21;100.00
62849;BME280;48941;49.516;8.286;2023-01-26T04:30:16;100995.81;;;0.19;100.00
62849;BME280;48941;49.516;8.286;2023-01-26T04:32:45;101000.09;;;0.24;100.00
62849;BME280;48941;49.516;8.286;2023-01-26T04:35:13;100995.66;;;0.26;100.00
62849;BME280;48941;49.516;8.286;2023-01-26T04:37:41;100995.63;;;0.27;100.00
62849;BME280;48941;49.516;8.286;2023-01-26T04:40:10;100990.34;;;0.29;100.00
62849;BME280;48941;49.516;8.286;2023-01-26T04:42:38;100989.44;;;0.30;100.00
62849;BME280;48941;49.516;8.286;2023-01-26T04:45:08;100982.53;;;0.27;100.00
62849;BME280;48941;49.516;8.286;2023-01-26T04:47:36;100977.28;;;0.27;100.00
62849;BME280;48941;49.516;8.286;2023-01-26T04:50:06;100971.09;;;0.30;100.00
62849;BME280;48941;49.516;8.286;2023-01-26T04:52:34;100973.69;;;0.30;100.00
62849;BME280;48941;49.516;8.286;2023-01-26T04:55:02;100976.31;;;0.30;100.00
62849;BME280;48941;49.516;8.286;2023-01-26T04:57:30;100973.63;;;0.33;100.00
62849;BME280;48941;49.516;8.286;2023-01-26T04:59:58;100978.88;;;0.33;100.00
62849;BME280;48941;49.516;8.286;2023-01-26T05:02:26;100970.16;;;0.32;100.00
62849;BME280;48941;49.516;8.286;2023-01-26T05:04:53;100959.75;;;0.29;100.00
62849;BME280;48941;49.516;8.286;2023-01-26T05:07:22;100967.56;;;0.31;100.00
62849;BME280;48941;49.516;8.286;2023-01-26T05:09:50;100959.78;;;0.28;100.00
62849;BME280;48941;49.516;8.286;2023-01-26T05:12:18;100968.34;;;0.34;100.00
62849;BME280;48941;49.516;8.286;2023-01-26T05:15:03;100961.53;;;0.29;100.00
62849;BME280;48941;49.516;8.286;2023-01-26T05:17:30;100962.31;;;0.32;100.00
62849;BME280;48941;49.516;8.286;2023-01-26T05:19:58;100956.28;;;0.29;100.00
62849;BME280;48941;49.516;8.286;2023-01-26T05:22:27;100959.72;;;0.31;100.00
62849;BME280;48941;49.516;8.286;2023-01-26T05:24:55;100957.25;;;0.26;100.00
62849;BME280;48941;49.516;8.286;2023-01-26T05:27:23;100954.66;;;0.25;100.00
62849;BME280;48941;49.516;8.286;2023-01-26T05:29:51;100958.16;;;0.24;100.00
62849;BME280;48941;49.516;8.286;2023-01-26T05:32:20;100961.59;;;0.26;100.00
62849;BME280;48941;49.516;8.286;2023-01-26T05:34:48;100964.19;;;0.27;100.00
62849;BME280;48941;49.516;8.286;2023-01-26T05:37:16;100967.78;;;0.23;100.00
62849;BME280;48941;49.516;8.286;2023-01-26T05:39:45;100960.97;;;0.17;100.00
62849;BME280;48941;49.516;8.286;2023-01-26T05:42:13;100968.94;;;0.13;100.00
62849;BME280;48941;49.516;8.286;2023-01-26T05:44:40;100967.03;;;0.18;100.00
62849;BME280;48941;49.516;8.286;2023-01-26T05:47:08;100960.97;;;0.17;100.00
62849;BME280;48941;49.516;8.286;2023-01-26T05:49:36;100961.78;;;0.19;100.00
62849;BME280;48941;49.516;8.286;2023-01-26T05:52:08;100965.38;;;0.15;100.00
62849;BME280;48941;49.516;8.286;2023-01-26T05:54:37;100961.00;;;0.16;100.00
62849;BME280;48941;49.516;8.286;2023-01-26T05:57:06;100963.50;;;0.21;100.00
62849;BME280;48941;49.516;8.286;2023-01-26T05:59:34;100961.72;;;0.21;99.42
62849;BME280;48941;49.516;8.286;2023-01-26T06:02:02;100966.22;;;0.16;99.56
62849;BME280;48941;49.516;8.286;2023-01-26T06:04:30;100966.19;;;0.17;99.51
62849;BME280;48941;49.516;8.286;2023-01-26T06:06:58;100966.16;;;0.19;99.77
62849;BME280;48941;49.516;8.286;2023-01-26T06:09:26;100964.34;;;0.21;99.46
62849;BME280;48941;49.516;8.286;2023-01-26T06:11:55;100972.28;;;0.18;99.43
62849;BME280;48941;49.516;8.286;2023-01-26T06:14:24;100979.31;;;0.16;99.56
62849;BME280;48941;49.516;8.286;2023-01-26T06:16:52;100978.41;;;0.18;100.00
62849;BME280;48941;49.516;8.286;2023-01-26T06:19:22;100983.69;;;0.17;100.00
62849;BME280;48941;49.516;8.286;2023-01-26T06:21:49;100991.56;;;0.15;100.00
62849;BME280;48941;49.516;8.286;2023-01-26T06:24:18;100986.34;;;0.15;99.40
62849;BME280;48941;49.516;8.286;2023-01-26T06:26:46;100991.69;;;0.12;99.08
62849;BME280;48941;49.516;8.286;2023-01-26T06:29:15;100996.00;;;0.13;99.18
62849;BME280;48941;49.516;8.286;2023-01-26T06:31:44;100994.94;;;0.21;98.94
62849;BME280;48941;49.516;8.286;2023-01-26T06:34:12;100999.19;;;0.25;98.64
62849;BME280;48941;49.516;8.286;2023-01-26T06:36:39;100994.81;;;0.25;98.11
62849;BME280;48941;49.516;8.286;2023-01-26T06:39:08;100994.91;;;0.22;97.87
62849;BME280;48941;49.516;8.286;2023-01-26T06:41:37;101006.28;;;0.21;98.57
62849;BME280;48941;49.516;8.286;2023-01-26T06:44:05;101001.84;;;0.23;98.62
62849;BME280;48941;49.516;8.286;2023-01-26T06:46:33;101001.09;;;0.18;97.71
62849;BME280;48941;49.516;8.286;2023-01-26T06:49:02;101003.78;;;0.16;97.75
62849;BME280;48941;49.516;8.286;2023-01-26T06:52:02;101003.72;;;0.18;97.96
62849;BME280;48941;49.516;8.286;2023-01-26T06:54:30;101007.31;;;0.14;98.22
62849;BME280;48941;49.516;8.286;2023-01-26T06:56:58;101001.97;;;0.18;98.15
62849;BME280;48941;49.516;8.286;2023-01-26T06:59:26;101002.84;;;0.19;98.23
62849;BME280;48941;49.516;8.286;2023-01-26T07:01:53;100997.03;;;0.08;97.88
62849;BME280;48941;49.516;8.286;2023-01-26T07:04:24;100999.78;;;0.03;98.12
62849;BME280;48941;49.516;8.286;2023-01-26T07:06:52;101008.47;;;0.04;98.18
62849;BME280;48941;49.516;8.286;2023-01-26T07:09:20;101010.19;;;0.06;97.37
62849;BME280;48941;49.516;8.286;2023-01-26T07:11:48;101018.09;;;0.03;97.56
62849;BME280;48941;49.516;8.286;2023-01-26T07:14:15;101003.31;;;0.02;97.59
62849;BME280;48941;49.516;8.286;2023-01-26T07:16:43;101003.31;;;0.02;97.38
62849;BME280;48941;49.516;8.286;2023-01-26T07:19:11;101006.00;;;-0.01;97.34
62849;BME280;48941;49.516;8.286;2023-01-26T07:21:40;101007.03;;;-0.08;97.54
62849;BME280;48941;49.516;8.286;2023-01-26T07:24:08;101010.47;;;-0.06;97.98
62849;BME280;48941;49.516;8.286;2023-01-26T07:26:36;101017.31;;;-0.01;97.35
62849;BME280;48941;49.516;8.286;2023-01-26T07:29:04;101017.25;;;0.03;97.13
62849;BME280;48941;49.516;8.286;2023-01-26T07:31:31;101014.50;;;0.07;97.13
62849;BME280;48941;49.516;8.286;2023-01-26T07:33:59;101020.75;;;0.02;97.19
62849;BME280;48941;49.516;8.286;2023-01-26T07:36:27;101015.59;;;0.00;97.19
62849;BME280;48941;49.516;8.286;2023-01-26T07:38:56;101015.50;;;0.03;96.82
62849;BME280;48941;49.516;8.286;2023-01-26T07:41:24;101011.16;;;0.02;96.75
62849;BME280;48941;49.516;8.286;2023-01-26T07:43:52;101011.25;;;-0.03;97.18
62849;BME280;48941;49.516;8.286;2023-01-26T07:46:19;101013.69;;;0.05;97.13
62849;BME280;48941;49.516;8.286;2023-01-26T07:48:47;101019.06;;;0.01;96.67
62849;BME280;48941;49.516;8.286;2023-01-26T07:51:15;101017.09;;;0.09;96.71
62849;BME280;48941;49.516;8.286;2023-01-26T07:53:43;101021.69;;;0.01;95.82
62849;BME280;48941;49.516;8.286;2023-01-26T07:56:17;101018.41;;;-0.08;96.19
62849;BME280;48941;49.516;8.286;2023-01-26T07:58:48;101017.41;;;-0.04;96.42
62849;BME280;48941;49.516;8.286;2023-01-26T08:01:16;101022.56;;;-0.01;96.33
62849;BME280;48941;49.516;8.286;2023-01-26T08:03:44;101021.09;;;-0.11;95.99
62849;BME280;48941;49.516;8.286;2023-01-26T08:06:12;101026.28;;;-0.09;95.80
62849;BME280;48941;49.516;8.286;2023-01-26T08:08:42;101027.63;;;0.06;95.55
62849;BME280;48941;49.516;8.286;2023-01-26T08:11:10;101018.94;;;0.05;94.99
62849;BME280;48941;49.516;8.286;2023-01-26T08:13:39;101019.03;;;0.02;94.38
62849;BME280;48941;49.516;8.286;2023-01-26T08:16:09;101017.31;;;-0.01;94.53
62849;BME280;48941;49.516;8.286;2023-01-26T08:18:38;101021.56;;;0.04;94.16
62849;BME280;48941;49.516;8.286;2023-01-26T08:21:06;101021.31;;;0.14;93.89
62849;BME280;48941;49.516;8.286;2023-01-26T08:23:34;101020.41;;;0.15;93.55
62849;BME280;48941;49.516;8.286;2023-01-26T08:26:03;101019.69;;;0.10;93.32
62849;BME280;48941;49.516;8.286;2023-01-26T08:28:32;101028.00;;;0.25;92.84
62849;BME280;48941;49.516;8.286;2023-01-26T08:31:04;101029.72;;;0.26;92.55
62849;BME280;48941;49.516;8.286;2023-01-26T08:33:32;101027.97;;;0.26;91.96
62849;BME280;48941;49.516;8.286;2023-01-26T08:36:01;101040.94;;;0.31;92.18
62849;BME280;48941;49.516;8.286;2023-01-26T08:38:29;101044.28;;;0.36;92.59
62849;BME280;48941;49.516;8.286;2023-01-26T08:40:57;101046.78;;;0.42;91.96
62849;BME280;48941;49.516;8.286;2023-01-26T08:43:26;101040.63;;;0.42;91.30
62849;BME280;48941;49.516;8.286;2023-01-26T08:45:54;101045.00;;;0.43;90.08
62849;BME280;48941;49.516;8.286;2023-01-26T08:48:23;101039.63;;;0.47;89.54
62849;BME280;48941;49.516;8.286;2023-01-26T08:50:52;101042.97;;;0.52;89.04
62849;BME280;48941;49.516;8.286;2023-01-26T08:53:20;101040.22;;;0.57;87.86
62849;BME280;48941;49.516;8.286;2023-01-26T08:55:48;101050.66;;;0.58;87.64
62849;BME280;48941;49.516;8.286;2023-01-26T08:58:17;101043.72;;;0.56;86.97
62849;BME280;48941;49.516;8.286;2023-01-26T09:00:45;101036.75;;;0.56;86.03
62849;BME280;48941;49.516;8.286;2023-01-26T09:03:14;101042.69;;;0.62;85.52
62849;BME280;48941;49.516;8.286;2023-01-26T09:05:44;101044.44;;;0.63;86.13
62849;BME280;48941;49.516;8.286;2023-01-26T09:08:11;101050.34;;;0.69;85.12
62849;BME280;48941;49.516;8.286;2023-01-26T09:10:39;101053.13;;;0.65;85.19
62849;BME280;48941;49.516;8.286;2023-01-26T09:13:08;101059.22;;;0.65;85.63
62849;BME280;48941;49.516;8.286;2023-01-26T09:15:36;101061.97;;;0.61;85.37
62849;BME280;48941;49.516;8.286;2023-01-26T09:18:04;101062.66;;;0.67;85.80
62849;BME280;48941;49.516;8.286;2023-01-26T09:20:32;101057.63;;;0.59;84.76
62849;BME280;48941;49.516;8.286;2023-01-26T09:23:01;101064.69;;;0.56;84.90
62849;BME280;48941;49.516;8.286;2023-01-26T09:25:29;101051.03;;;0.46;85.15
62849;BME280;48941;49.516;8.286;2023-01-26T09:27:57;101052.75;;;0.46;85.34
62849;BME280;48941;49.516;8.286;2023-01-26T09:30:25;101054.50;;;0.47;85.25
62849;BME280;48941;49.516;8.286;2023-01-26T09:32:57;101055.38;;;0.46;85.94
62849;BME280;48941;49.516;8.286;2023-01-26T09:35:25;101057.81;;;0.52;86.33
62849;BME280;48941;49.516;8.286;2023-01-26T09:37:53;101064.00;;;0.51;86.46
62849;BME280;48941;49.516;8.286;2023-01-26T09:40:28;101066.47;;;0.55;85.86
62849;BME280;48941;49.516;8.286;2023-01-26T09:43:08;101064.63;;;0.59;85.41
62849;BME280;48941;49.516;8.286;2023-01-26T09:45:45;101066.25;;;0.63;85.16
62849;BME280;48941;49.516;8.286;2023-01-26T09:48:23;101063.75;;;0.60;84.95
62849;BME280;48941;49.516;8.286;2023-01-26T09:50:59;101054.88;;;0.64;85.03
62849;BME280;48941;49.516;8.286;2023-01-26T09:53:40;101047.91;;;0.63;84.47
62849;BME280;48941;49.516;8.286;2023-01-26T09:56:17;101055.00;;;0.59;83.87
62849;BME280;48941;49.516;8.286;2023-01-26T09:58:46;101047.88;;;0.65;83.05
62849;BME280;48941;49.516;8.286;2023-01-26T10:01:22;101038.28;;;0.64;83.85
62849;BME280;48941;49.516;8.286;2023-01-26T10:04:00;101046.22;;;0.62;83.19
62849;BME280;48941;49.516;8.286;2023-01-26T10:06:29;101040.72;;;0.70;83.15
62849;BME280;48941;49.516;8.286;2023-01-26T10:09:00;101045.97;;;0.70;83.33
62849;BME280;48941;49.516;8.286;2023-01-26T10:11:32;101039.09;;;0.66;83.72
62849;BME280;48941;49.516;8.286;2023-01-26T10:14:10;101037.41;;;0.63;84.16
62849;BME280;48941;49.516;8.286;2023-01-26T10:16:41;101031.28;;;0.64;83.86
62849;BME280;48941;49.516;8.286;2023-01-26T10:19:14;101036.66;;;0.59;83.76
62849;BME280;48941;49.516;8.286;2023-01-26T10:21:46;101034.91;;;0.60;84.88
62849;BME280;48941;49.516;8.286;2023-01-26T10:24:19;101033.09;;;0.62;84.46
62849;BME280;48941;49.516;8.286;2023-01-26T10:26:51;101041.06;;;0.57;84.52
62849;BME280;48941;49.516;8.286;2023-01-26T10:29:19;101036.66;;;0.59;84.25
62849;BME280;48941;49.516;8.286;2023-01-26T10:31:47;101033.16;;;0.59;83.52
62849;BME280;48941;49.516;8.286;2023-01-26T10:34:19;101033.22;;;0.57;82.73
62849;BME280;48941;49.516;8.286;2023-01-26T10:36:49;101026.97;;;0.62;83.02
62849;BME280;48941;49.516;8.286;2023-01-26T10:39:17;101024.56;;;0.54;83.10
62849;BME280;48941;49.516;8.286;2023-01-26T10:41:59;101028.72;;;0.63;83.15
62849;BME280;48941;49.516;8.286;2023-01-26T10:44:31;101021.84;;;0.58;83.04
62849;BME280;48941;49.516;8.286;2023-01-26T10:47:13;101031.31;;;0.63;82.10
62849;BME280;48941;49.516;8.286;2023-01-26T10:49:42;101021.84;;;0.58;81.87
62849;BME280;48941;49.516;8.286;2023-01-26T10:52:15;101015.00;;;0.53;82.04
62849;BME280;48941;49.516;8.286;2023-01-26T10:54:44;101017.75;;;0.48;81.66
62849;BME280;48941;49.516;8.286;2023-01-26T10:57:16;101012.56;;;0.47;81.88
62849;BME280;48941;49.516;8.286;2023-01-26T10:59:50;101015.22;;;0.45;81.92
62849;BME280;48941;49.516;8.286;2023-01-26T11:02:23;101009.97;;;0.45;82.34
62849;BME280;48941;49.516;8.286;2023-01-26T11:07:41;101002.09;;;0.45;82.46
62849;BME280;48941;49.516;8.286;2023-01-26T11:10:22;101004.59;;;0.50;82.59
62849;BME280;48941;49.516;8.286;2023-01-26T11:13:06;101008.91;;;0.52;82.71
62849;BME280;48941;49.516;8.286;2023-01-26T11:15:36;101004.47;;;0.54;82.50
62849;BME280;48941;49.516;8.286;2023-01-26T11:18:12;101001.94;;;0.51;83.08
62849;BME280;48941;49.516;8.286;2023-01-26T11:20:56;100993.88;;;0.57;82.29
62849;BME280;48941;49.516;8.286;2023-01-26T11:23:37;100995.59;;;0.60;82.12
62849;BME280;48941;49.516;8.286;2023-01-26T11:26:26;101002.44;;;0.64;81.20
62849;BME280;48941;49.516;8.286;2023-01-26T11:29:16;100995.81;;;0.52;81.70
62849;BME280;48941;49.516;8.286;2023-01-26T11:31:58;100995.72;;;0.54;80.72
62849;BME280;48941;49.516;8.286;2023-01-26T11:34:35;100986.97;;;0.55;80.59
62849;BME280;48941;49.516;8.286;2023-01-26T11:37:35;100989.00;;;0.45;81.00
62849;BME280;48941;49.516;8.286;2023-01-26T11:40:18;100986.53;;;0.41;82.11
62849;BME280;48941;49.516;8.286;2023-01-26T11:43:00;100983.97;;;0.37;81.77
62849;BME280;48941;49.516;8.286;2023-01-26T11:45:57;100983.69;;;0.48;80.52
62849;BME280;48941;49.516;8.286;2023-01-26T11:48:35;100976.88;;;0.41;81.64
62849;BME280;48941;49.516;8.286;2023-01-26T11:51:11;100964.59;;;0.43;81.02
62849;BME280;48941;49.516;8.286;2023-01-26T11:53:58;100963.44;;;0.53;81.43
62849;BME280;48941;49.516;8.286;2023-01-26T11:56:41;100961.94;;;0.45;80.73
62849;BME280;48941;49.516;8.286;2023-01-26T11:59:16;100960.16;;;0.45;80.77
62849;BME280;48941;49.516;8.286;2023-01-26T12:01:50;100956.72;;;0.43;80.74
62849;BME280;48941;49.516;8.286;2023-01-26T12:04:21;100952.31;;;0.45;81.36
62849;BME280;48941;49.516;8.286;2023-01-26T12:06:53;100951.41;;;0.46;80.65
62849;BME280;48941;49.516;8.286;2023-01-26T12:09:29;100957.47;;;0.48;80.88
62849;BME280;48941;49.516;8.286;2023-01-26T12:12:05;100954.13;;;0.43;81.39
62849;BME280;48941;49.516;8.286;2023-01-26T12:14:40;100953.34;;;0.39;82.02
62849;BME280;48941;49.516;8.286;2023-01-26T12:17:26;100955.88;;;0.43;80.70
62849;BME280;48941;49.516;8.286;2023-01-26T12:20:04;100954.38;;;0.34;81.50
62849;BME280;48941;49.516;8.286;2023-01-26T12:22:36;100949.13;;;0.34;81.47
62849;BME280;48941;49.516;8.286;2023-01-26T12:25:18;100949.06;;;0.37;81.86
62849;BME280;48941;49.516;8.286;2023-01-26T12:27:53;100937.56;;;0.41;82.06
62849;BME280;48941;49.516;8.286;2023-01-26T12:30:30;100937.56;;;0.41;81.46
62849;BME280;48941;49.516;8.286;2023-01-26T12:33:02;100934.00;;;0.44;81.18
62849;BME280;48941;49.516;8.286;2023-01-26T12:35:40;100931.44;;;0.42;81.26
62849;BME280;48941;49.516;8.286;2023-01-26T12:38:13;100927.94;;;0.42;81.34
62849;BME280;48941;49.516;8.286;2023-01-26T12:40:54;100932.47;;;0.36;81.59
62849;BME280;48941;49.516;8.286;2023-01-26T12:43:37;100927.94;;;0.42;81.18
62849;BME280;48941;49.516;8.286;2023-01-26T12:46:09;100926.44;;;0.34;81.26
62849;BME280;48941;49.516;8.286;2023-01-26T12:48:42;100926.44;;;0.34;81.88
62849;BME280;48941;49.516;8.286;2023-01-26T12:51:18;100917.78;;;0.31;80.89
62849;BME280;48941;49.516;8.286;2023-01-26T12:53:53;100908.00;;;0.36;80.27
62849;BME280;48941;49.516;8.286;2023-01-26T12:56:28;100908.00;;;0.36;80.29
62849;BME280;48941;49.516;8.286;2023-01-26T12:59:00;100911.59;;;0.33;80.49
62849;BME280;48941;49.516;8.286;2023-01-26T13:01:37;100908.56;;;0.17;81.21
62849;BME280;48941;49.516;8.286;2023-01-26T13:04:10;100910.19;;;0.22;81.05
62849;BME280;48941;49.516;8.286;2023-01-26T13:06:38;100908.53;;;0.19;80.04
62849;BME280;48941;49.516;8.286;2023-01-26T13:09:21;100903.72;;;0.33;79.93
62849;BME280;48941;49.516;8.286;2023-01-26T13:11:51;100906.38;;;0.32;79.59
62849;BME280;48941;49.516;8.286;2023-01-26T13:14:32;100902.91;;;0.31;79.11
62849;BME280;48941;49.516;8.286;2023-01-26T13:20:43;100908.72;;;0.43;79.95
62849;BME280;48941;49.516;8.286;2023-01-26T13:23:38;100908.84;;;0.38;79.82
62849;BME280;48941;49.516;8.286;2023-01-26T13:29:27;100903.72;;;0.33;78.66
62849;BME280;48941;49.516;8.286;2023-01-26T13:31:59;100905.41;;;0.36;79.51